Time;durP1;ratioP1;P1;durP2;ratioP2;P2;SDS_P1;SDS_P2;PMS_P1;PMS_P2;Temp;Humidity;BMP_temperature;BMP_pressure;BME280_temperature;BME280_humidity;BME280_pressure;Samples;Min_cycle;Max_cycle;Signal;HPM_P1;HPM_P2
2023/04/20 00:02:03;;;;;;;55.85;21.50;;;;;;;;;;5053995;28;20124;-85
2023/04/20 00:04:29;;;;;;;48.83;21.65;;;;;;;;;;5037391;28;20490;-85
2023/04/20 00:06:58;;;;;;;48.05;21.42;;;;;;;;;;5053723;28;20037;-85
2023/04/20 00:09:25;;;;;;;51.67;21.83;;;;;;;;;;5038022;28;20033;-84
2023/04/20 00:11:50;;;;;;;47.28;21.60;;;;;;;;;;5053834;28;20466;-84
2023/04/20 00:14:16;;;;;;;50.78;21.80;;;;;;;;;;5021321;28;20092;-84
2023/04/20 00:16:41;;;;;;;53.00;20.83;;;;;;;;;;5054569;28;20029;-84
2023/04/20 00:19:07;;;;;;;56.75;22.17;;;;;;;;;;5021115;28;20033;-85
2023/04/20 00:21:33;;;;;;;51.90;22.17;;;;;;;;;;5037112;28;20040;-84
2023/04/20 00:23:58;;;;;;;53.05;22.25;;;;;;;;;;5021775;28;20068;-85
2023/04/20 00:26:24;;;;;;;53.67;20.95;;;;;;;;;;5038490;28;20106;-85
2023/04/20 00:28:50;;;;;;;60.55;22.48;;;;;;;;;;5021900;28;20129;-85
2023/04/20 00:31:15;;;;;;;52.63;21.33;;;;;;;;;;5021196;28;20025;-85
2023/04/20 00:33:40;;;;;;;45.92;21.17;;;;;;;;;;5053876;28;20017;-85
2023/04/20 00:36:06;;;;;;;44.35;21.35;;;;;;;;;;5020478;28;20025;-83
2023/04/20 00:38:32;;;;;;;59.80;21.67;;;;;;;;;;5054087;28;20346;-85
2023/04/20 00:40:57;;;;;;;48.03;21.80;;;;;;;;;;5020844;28;20425;-85
2023/04/20 00:43:23;;;;;;;54.03;21.48;;;;;;;;;;5053608;28;20509;-85
2023/04/20 00:45:50;;;;;;;52.72;21.40;;;;;;;;;;5036991;28;20032;-85
2023/04/20 00:48:16;;;;;;;46.13;20.33;;;;;;;;;;5037149;28;20059;-85
2023/04/20 00:50:41;;;;;;;53.33;21.65;;;;;;;;;;5036825;28;20025;-85
2023/04/20 00:53:07;;;;;;;56.25;20.63;;;;;;;;;;5020985;28;20021;-85
2023/04/20 00:55:34;;;;;;;49.80;21.08;;;;;;;;;;5037002;28;20021;-85
2023/04/20 00:58:05;;;;;;;49.20;21.58;;;;;;;;;;5054503;28;20109;-85
2023/04/20 01:00:31;;;;;;;59.65;22.38;;;;;;;;;;5036106;28;20037;-85
2023/04/20 01:02:57;;;;;;;51.45;21.55;;;;;;;;;;5054402;28;20101;-83
2023/04/20 01:05:23;;;;;;;53.63;23.05;;;;;;;;;;5056232;28;20454;-84
2023/04/20 01:07:48;;;;;;;56.83;22.98;;;;;;;;;;5073600;28;20517;-83
2023/04/20 01:10:14;;;;;;;56.25;22.88;;;;;;;;;;5073352;28;20024;-83
2023/04/20 01:12:39;;;;;;;53.90;23.83;;;;;;;;;;5073195;28;20028;-83
2023/04/20 01:15:05;;;;;;;51.97;22.92;;;;;;;;;;5055619;28;20068;-83
2023/04/20 01:17:32;;;;;;;54.08;23.05;;;;;;;;;;5039994;28;20032;-83
2023/04/20 01:19:58;;;;;;;51.85;23.30;;;;;;;;;;5073005;28;20030;-83
2023/04/20 01:22:24;;;;;;;55.50;22.73;;;;;;;;;;5040128;28;20461;-84
2023/04/20 01:24:49;;;;;;;50.63;22.88;;;;;;;;;;5039860;28;20032;-84
2023/04/20 01:27:15;;;;;;;57.58;23.88;;;;;;;;;;5056311;28;20082;-84
2023/04/20 01:29:41;;;;;;;53.78;24.38;;;;;;;;;;5056462;28;20028;-84
2023/04/20 01:32:07;;;;;;;55.85;24.15;;;;;;;;;;5056165;28;20508;-85
2023/04/20 01:34:32;;;;;;;56.00;25.80;;;;;;;;;;5055995;28;20028;-84
2023/04/20 01:36:58;;;;;;;54.25;24.70;;;;;;;;;;5039754;28;20439;-85
2023/04/20 01:39:24;;;;;;;60.15;24.83;;;;;;;;;;5056126;28;20036;-84
2023/04/20 01:41:49;;;;;;;54.75;25.27;;;;;;;;;;5056024;28;20170;-85
2023/04/20 01:44:15;;;;;;;57.05;24.25;;;;;;;;;;5039364;28;20024;-84
2023/04/20 01:46:41;;;;;;;63.60;25.02;;;;;;;;;;5056095;28;20028;-84
2023/04/20 01:49:06;;;;;;;60.13;26.15;;;;;;;;;;5069745;28;20032;-84
2023/04/20 01:51:33;;;;;;;61.00;26.73;;;;;;;;;;5019646;28;20025;-84
2023/04/20 01:53:59;;;;;;;59.83;25.50;;;;;;;;;;5035932;28;20032;-84
2023/04/20 01:56:25;;;;;;;55.63;25.75;;;;;;;;;;5036049;28;20028;-83
2023/04/20 01:58:50;;;;;;;61.53;25.38;;;;;;;;;;5052618;28;20448;-83
2023/04/20 02:01:16;;;;;;;56.17;25.25;;;;;;;;;;5035981;28;20033;-86
2023/04/20 02:03:41;;;;;;;61.30;26.50;;;;;;;;;;5035910;28;20025;-85
2023/04/20 02:06:06;;;;;;;63.72;26.88;;;;;;;;;;5052648;28;20040;-83
2023/04/20 02:08:32;;;;;;;71.65;26.33;;;;;;;;;;5052290;28;20044;-83
2023/04/20 02:10:57;;;;;;;63.28;27.83;;;;;;;;;;5019075;28;20090;-83
2023/04/20 02:13:23;;;;;;;66.90;28.98;;;;;;;;;;5035684;28;20029;-83
2023/04/20 02:15:51;;;;;;;71.45;29.48;;;;;;;;;;5035853;28;20029;-84
2023/04/20 02:18:17;;;;;;;69.32;29.90;;;;;;;;;;5053234;28;20044;-84
2023/04/20 02:20:43;;;;;;;63.85;29.10;;;;;;;;;;5035827;28;20438;-84
2023/04/20 02:23:08;;;;;;;66.72;28.13;;;;;;;;;;5052283;28;20027;-84
2023/04/20 02:25:34;;;;;;;62.45;26.65;;;;;;;;;;5052257;28;20025;-84
2023/04/20 02:27:59;;;;;;;65.05;26.10;;;;;;;;;;5022743;28;20025;-84
2023/04/20 02:30:25;;;;;;;56.65;25.45;;;;;;;;;;5039680;28;20025;-83
2023/04/20 02:32:50;;;;;;;65.32;25.75;;;;;;;;;;5023055;28;20031;-83
2023/04/20 02:35:16;;;;;;;62.88;25.33;;;;;;;;;;5039980;28;20335;-84
2023/04/20 02:37:42;;;;;;;64.55;26.02;;;;;;;;;;5023210;28;20032;-85
2023/04/20 02:40:08;;;;;;;62.95;28.30;;;;;;;;;;5055982;28;20032;-85
2023/04/20 02:42:34;;;;;;;60.17;27.17;;;;;;;;;;5056149;28;20040;-84
2023/04/20 02:44:59;;;;;;;69.55;28.20;;;;;;;;;;5056193;28;20350;-84
2023/04/20 02:47:27;;;;;;;67.00;27.35;;;;;;;;;;5038923;28;20112;-84
2023/04/20 02:49:53;;;;;;;68.70;27.58;;;;;;;;;;5040076;28;20060;-85
2023/04/20 02:52:18;;;;;;;59.35;26.67;;;;;;;;;;5056207;28;20111;-85
2023/04/20 02:54:44;;;;;;;72.95;29.02;;;;;;;;;;5057156;28;20040;-84
2023/04/20 02:57:10;;;;;;;66.00;26.52;;;;;;;;;;5054795;28;20037;-86
2023/04/20 02:59:36;;;;;;;70.65;28.13;;;;;;;;;;5039072;28;20055;-84
2023/04/20 03:02:01;;;;;;;69.50;28.10;;;;;;;;;;5038667;28;20140;-84
2023/04/20 03:04:27;;;;;;;61.38;27.65;;;;;;;;;;5038966;28;20025;-85
2023/04/20 03:06:52;;;;;;;76.85;28.70;;;;;;;;;;5022391;28;20052;-84
2023/04/20 03:09:18;;;;;;;65.30;28.05;;;;;;;;;;5038933;28;20037;-85
2023/04/20 03:11:44;;;;;;;66.50;28.80;;;;;;;;;;5039249;28;20454;-85
2023/04/20 03:14:09;;;;;;;71.35;31.10;;;;;;;;;;5021533;28;20095;-85
2023/04/20 03:16:35;;;;;;;72.63;31.55;;;;;;;;;;5055137;28;20036;-85
2023/04/20 03:19:00;;;;;;;83.05;32.35;;;;;;;;;;5056714;28;20051;-85
2023/04/20 03:21:26;;;;;;;72.15;32.17;;;;;;;;;;5038492;28;20051;-85
2023/04/20 03:23:52;;;;;;;71.20;30.90;;;;;;;;;;5038310;28;20089;-84
2023/04/20 03:26:20;;;;;;;73.43;30.30;;;;;;;;;;5054849;28;20076;-84
2023/04/20 03:28:45;;;;;;;65.18;30.27;;;;;;;;;;5039427;28;20081;-84
2023/04/20 03:31:11;;;;;;;71.78;30.55;;;;;;;;;;5022046;28;20052;-83
2023/04/20 03:33:36;;;;;;;72.15;30.42;;;;;;;;;;5055233;28;20116;-84
2023/04/20 03:36:04;;;;;;;73.97;30.48;;;;;;;;;;5056301;28;20117;-83
2023/04/20 03:38:30;;;;;;;68.80;30.20;;;;;;;;;;5038122;28;20033;-83
2023/04/20 03:40:55;;;;;;;59.80;29.33;;;;;;;;;;5021653;28;20032;-84
2023/04/20 03:43:21;;;;;;;64.38;29.00;;;;;;;;;;5055008;28;20032;-85
2023/04/20 03:45:46;;;;;;;66.10;29.42;;;;;;;;;;5054579;28;20032;-85
2023/04/20 03:48:12;;;;;;;74.10;31.05;;;;;;;;;;5056064;28;20041;-84
2023/04/20 03:50:37;;;;;;;72.22;29.10;;;;;;;;;;5054727;28;20434;-84
2023/04/20 03:53:02;;;;;;;68.05;30.25;;;;;;;;;;5038239;28;20370;-84
2023/04/20 03:55:28;;;;;;;66.10;28.83;;;;;;;;;;5054476;28;20131;-84
2023/04/20 03:57:53;;;;;;;67.78;28.83;;;;;;;;;;5054740;28;20084;-85
2023/04/20 04:00:19;;;;;;;70.30;29.30;;;;;;;;;;5040262;28;20446;-83
2023/04/20 04:02:45;;;;;;;74.80;31.77;;;;;;;;;;5074177;28;20035;-83
2023/04/20 04:05:10;;;;;;;75.72;33.30;;;;;;;;;;5041122;28;20036;-83
2023/04/20 04:07:36;;;;;;;88.82;37.97;;;;;;;;;;5075310;28;20036;-83
2023/04/20 04:10:03;;;;;;;96.32;38.70;;;;;;;;;;5074308;28;20032;-83
2023/04/20 04:12:29;;;;;;;107.22;40.25;;;;;;;;;;5074200;28;20039;-82
2023/04/20 04:14:54;;;;;;;89.90;36.78;;;;;;;;;;5067345;28;20033;-82
2023/04/20 04:17:22;;;;;;;85.95;34.22;;;;;;;;;;5020962;28;20442;-85
2023/04/20 04:19:48;;;;;;;75.28;32.65;;;;;;;;;;5037975;28;20035;-86
2023/04/20 04:22:13;;;;;;;72.35;31.35;;;;;;;;;;5054063;28;20135;-86
2023/04/20 04:24:40;;;;;;;72.72;31.10;;;;;;;;;;5021316;28;20033;-86
2023/04/20 04:27:06;;;;;;;64.93;29.73;;;;;;;;;;5021307;28;20039;-85
2023/04/20 04:29:34;;;;;;;68.22;29.08;;;;;;;;;;5054503;28;20037;-86
2023/04/20 04:32:02;;;;;;;68.20;28.90;;;;;;;;;;5055292;28;20041;-86
2023/04/20 04:34:28;;;;;;;73.65;28.98;;;;;;;;;;5038179;28;20036;-86
2023/04/20 04:36:54;;;;;;;71.90;29.17;;;;;;;;;;5055650;28;20079;-84
2023/04/20 04:39:19;;;;;;;61.85;28.70;;;;;;;;;;5037390;28;20029;-83
2023/04/20 04:41:45;;;;;;;65.25;28.98;;;;;;;;;;5020519;28;20086;-83
2023/04/20 04:44:10;;;;;;;58.35;28.83;;;;;;;;;;5058371;28;20116;-81
2023/04/20 04:46:36;;;;;;;61.83;28.92;;;;;;;;;;5066715;28;20032;-83
2023/04/20 04:49:03;;;;;;;67.43;29.67;;;;;;;;;;5068419;28;20650;-84
2023/04/20 04:51:28;;;;;;;64.50;28.30;;;;;;;;;;5054642;28;20354;-85
2023/04/20 04:53:56;;;;;;;68.55;29.40;;;;;;;;;;5053708;28;20094;-83
2023/04/20 04:56:22;;;;;;;66.43;29.52;;;;;;;;;;5053065;28;20115;-84
2023/04/20 04:58:48;;;;;;;71.75;28.70;;;;;;;;;;5070432;28;20060;-82
2023/04/20 05:01:21;;;;;;;72.72;28.55;;;;;;;;;;5053107;28;20075;-85
2023/04/20 05:03:55;;;;;;;71.20;29.08;;;;;;;;;;5047240;28;20040;-84
2023/04/20 05:06:20;;;;;;;65.10;28.13;;;;;;;;;;5067113;28;20033;-85
2023/04/20 05:08:45;;;;;;;63.22;29.00;;;;;;;;;;5050335;28;20092;-86
2023/04/20 05:11:26;;;;;;;64.40;29.65;;;;;;;;;;5041953;28;20044;-86
2023/04/20 05:13:53;;;;;;;65.55;31.10;;;;;;;;;;5061602;28;20036;-79
2023/04/20 05:16:18;;;;;;;67.00;29.95;;;;;;;;;;5071142;28;20121;-78
2023/04/20 05:18:44;;;;;;;65.25;28.25;;;;;;;;;;5069957;28;20461;-77
2023/04/20 05:21:10;;;;;;;66.13;30.90;;;;;;;;;;5063900;28;20059;-77
2023/04/20 05:23:35;;;;;;;70.55;30.65;;;;;;;;;;5061147;28;20101;-78
2023/04/20 05:26:01;;;;;;;66.88;29.08;;;;;;;;;;5027133;28;20047;-77
2023/04/20 05:28:29;;;;;;;74.40;28.38;;;;;;;;;;5052290;28;20507;-85
2023/04/20 05:31:33;;;;;;;56.33;26.98;;;;;;;;;;5054209;28;20028;-83
2023/04/20 05:34:01;;;;;;;57.30;26.73;;;;;;;;;;5066026;28;20032;-85
2023/04/20 05:36:28;;;;;;;53.17;26.23;;;;;;;;;;5058123;28;20085;-81
2023/04/20 05:38:59;;;;;;;55.80;25.63;;;;;;;;;;5077949;28;20032;-84
2023/04/20 05:41:28;;;;;;;56.15;26.08;;;;;;;;;;5058053;28;20442;-79
2023/04/20 05:43:53;;;;;;;55.70;26.15;;;;;;;;;;5062062;28;20115;-79
2023/04/20 05:46:28;;;;;;;57.78;26.77;;;;;;;;;;5047279;28;20044;-83
2023/04/20 05:49:12;;;;;;;48.78;25.80;;;;;;;;;;5081778;28;20134;-85
2023/04/20 05:51:38;;;;;;;51.90;26.33;;;;;;;;;;5067089;28;20046;-84
2023/04/20 05:54:03;;;;;;;60.92;26.67;;;;;;;;;;5066777;28;20391;-83
2023/04/20 05:56:29;;;;;;;51.17;26.10;;;;;;;;;;5057455;28;20029;-85
2023/04/20 05:58:55;;;;;;;53.10;27.27;;;;;;;;;;5065130;28;20052;-82
2023/04/20 06:01:38;;;;;;;56.42;28.45;;;;;;;;;;5072217;28;20028;-83
2023/04/20 06:04:38;;;;;;;56.95;29.52;;;;;;;;;;5077962;28;20024;-85
2023/04/20 06:07:03;;;;;;;62.90;29.17;;;;;;;;;;5069529;28;20035;-82
2023/04/20 06:09:31;;;;;;;59.53;30.38;;;;;;;;;;5067470;22;20028;-86
2023/04/20 06:11:57;;;;;;;66.05;29.50;;;;;;;;;;5063238;28;20072;-88
2023/04/20 06:14:22;;;;;;;61.40;28.58;;;;;;;;;;5062466;28;20360;-86
2023/04/20 06:16:48;;;;;;;57.47;28.90;;;;;;;;;;5044211;28;20033;-87
2023/04/20 06:19:13;;;;;;;58.78;28.27;;;;;;;;;;5045138;28;20097;-87
2023/04/20 06:21:50;;;;;;;58.83;27.73;;;;;;;;;;5059939;28;20064;-87
2023/04/20 06:24:16;;;;;;;59.90;27.33;;;;;;;;;;5063147;28;20032;-85
2023/04/20 06:26:41;;;;;;;52.30;24.88;;;;;;;;;;5079842;28;20031;-87
2023/04/20 06:29:10;;;;;;;55.80;23.95;;;;;;;;;;5072100;28;20033;-87
2023/04/20 06:31:36;;;;;;;51.17;24.60;;;;;;;;;;5068116;28;20060;-86
2023/04/20 06:34:01;;;;;;;58.03;25.80;;;;;;;;;;5058789;28;20028;-87
2023/04/20 06:36:30;;;;;;;52.47;24.52;;;;;;;;;;5086078;22;20067;-87
2023/04/20 06:38:56;;;;;;;57.30;24.48;;;;;;;;;;5082655;28;20083;-86
2023/04/20 06:41:22;;;;;;;49.92;24.77;;;;;;;;;;5062686;28;20040;-85
2023/04/20 06:43:48;;;;;;;42.22;24.08;;;;;;;;;;5052820;28;20485;-88
2023/04/20 06:46:53;;;;;;;48.13;23.88;;;;;;;;;;5072898;28;20033;-86
2023/04/20 06:49:24;;;;;;;43.15;22.25;;;;;;;;;;5023417;28;20073;-86
2023/04/20 06:51:50;;;;;;;50.78;21.83;;;;;;;;;;5022925;28;20101;-87
2023/04/20 06:54:16;;;;;;;36.05;19.88;;;;;;;;;;5042508;28;20060;-84
2023/04/20 06:56:41;;;;;;;40.25;19.05;;;;;;;;;;5065991;28;20055;-84
2023/04/20 06:59:07;;;;;;;41.70;18.38;;;;;;;;;;5049415;28;20043;-85
2023/04/20 07:01:44;;;;;;;40.80;19.40;;;;;;;;;;5062098;28;20033;-88
2023/04/20 07:04:10;;;;;;;38.83;20.13;;;;;;;;;;5043139;28;20040;-85
2023/04/20 07:06:35;;;;;;;40.70;19.70;;;;;;;;;;5059487;28;20434;-84
2023/04/20 07:09:10;;;;;;;39.85;20.75;;;;;;;;;;5041987;28;20060;-84
2023/04/20 07:11:36;;;;;;;34.97;19.75;;;;;;;;;;5059200;28;20036;-86
2023/04/20 07:14:01;;;;;;;40.15;20.80;;;;;;;;;;5083396;28;20356;-87
2023/04/20 07:16:36;;;;;;;41.65;20.42;;;;;;;;;;5082992;28;20098;-86
2023/04/20 07:19:02;;;;;;;35.88;18.42;;;;;;;;;;5082277;28;20033;-86
2023/04/20 07:21:27;;;;;;;35.45;20.20;;;;;;;;;;5066616;28;20493;-87
2023/04/20 07:23:57;;;;;;;36.03;18.83;;;;;;;;;;5082581;28;20377;-86
2023/04/20 07:26:26;;;;;;;37.28;20.45;;;;;;;;;;5081699;28;20036;-87
2023/04/20 07:28:51;;;;;;;44.57;20.90;;;;;;;;;;5075520;28;20037;-84
2023/04/20 07:31:17;;;;;;;54.63;19.52;;;;;;;;;;5061691;28;20280;-89
2023/04/20 07:33:52;;;;;;;40.50;19.98;;;;;;;;;;5078117;28;20327;-86
2023/04/20 07:36:18;;;;;;;39.67;20.67;;;;;;;;;;5062676;28;20044;-84
2023/04/20 07:38:44;;;;;;;41.20;19.00;;;;;;;;;;5080719;28;20071;-87
2023/04/20 07:41:10;;;;;;;39.90;19.40;;;;;;;;;;5080797;28;20028;-86
2023/04/20 07:43:36;;;;;;;38.53;19.83;;;;;;;;;;5061785;28;20021;-84
2023/04/20 07:46:01;;;;;;;46.25;19.73;;;;;;;;;;5078250;28;20322;-84
2023/04/20 07:48:27;;;;;;;34.65;19.08;;;;;;;;;;5040556;28;20028;-85
2023/04/20 07:50:52;;;;;;;40.78;19.90;;;;;;;;;;5081621;28;20024;-83
2023/04/20 07:53:18;;;;;;;42.60;19.90;;;;;;;;;;5085252;28;20047;-84
2023/04/20 07:55:43;;;;;;;42.55;17.30;;;;;;;;;;5076217;28;20050;-80
2023/04/20 07:58:09;;;;;;;27.02;15.00;;;;;;;;;;5073803;28;20508;-84
2023/04/20 08:00:34;;;;;;;33.72;15.63;;;;;;;;;;5070998;28;20016;-82
2023/04/20 08:03:00;;;;;;;39.70;16.33;;;;;;;;;;5074864;28;20032;-80
2023/04/20 08:05:25;;;;;;;28.20;15.88;;;;;;;;;;5055035;28;20436;-81
2023/04/20 08:07:51;;;;;;;33.30;16.92;;;;;;;;;;5054959;28;20033;-80
2023/04/20 08:10:16;;;;;;;29.75;15.40;;;;;;;;;;5054349;28;20468;-81
2023/04/20 08:12:42;;;;;;;30.35;15.80;;;;;;;;;;5074175;28;20024;-81
2023/04/20 08:15:08;;;;;;;31.42;15.88;;;;;;;;;;5075519;28;20025;-81
2023/04/20 08:17:37;;;;;;;32.65;16.13;;;;;;;;;;5061349;28;20029;-81
2023/04/20 08:20:04;;;;;;;30.60;15.18;;;;;;;;;;5060057;28;20028;-82
2023/04/20 08:22:31;;;;;;;35.67;15.90;;;;;;;;;;5074462;28;20029;-82
2023/04/20 08:24:56;;;;;;;35.00;16.08;;;;;;;;;;5073432;28;20111;-81
2023/04/20 08:27:22;;;;;;;27.27;15.18;;;;;;;;;;5073832;28;20139;-82
2023/04/20 08:29:47;;;;;;;27.52;14.07;;;;;;;;;;5073136;28;20028;-83
2023/04/20 08:32:14;;;;;;;29.08;14.88;;;;;;;;;;5048345;28;20165;-84
2023/04/20 08:34:39;;;;;;;27.65;14.82;;;;;;;;;;5068141;28;20032;-85
2023/04/20 08:37:05;;;;;;;32.95;14.70;;;;;;;;;;5272999;22;20041;-86
2023/04/20 08:39:31;;;;;;;25.73;15.65;;;;;;;;;;5057343;28;20101;-83
2023/04/20 08:42:02;;;;;;;51.67;15.63;;;;;;;;;;5064625;28;20182;-86
2023/04/20 08:44:28;;;;;;;28.48;15.05;;;;;;;;;;5059974;28;20047;-83
2023/04/20 08:46:53;;;;;;;42.22;15.95;;;;;;;;;;5068407;28;20029;-86
2023/04/20 08:49:19;;;;;;;29.42;14.65;;;;;;;;;;5058473;28;20025;-85
2023/04/20 08:51:54;;;;;;;31.60;13.68;;;;;;;;;;5063322;28;20037;-83
2023/04/20 08:54:19;;;;;;;24.48;13.73;;;;;;;;;;5061414;28;20028;-87
2023/04/20 08:56:45;;;;;;;32.05;15.05;;;;;;;;;;5080038;28;20063;-82
2023/04/20 08:59:14;;;;;;;26.88;14.80;;;;;;;;;;5073012;28;20029;-84
2023/04/20 09:01:40;;;;;;;26.07;15.03;;;;;;;;;;5059722;28;20062;-87
2023/04/20 09:04:21;;;;;;;26.95;14.90;;;;;;;;;;5057617;28;20029;-86
2023/04/20 09:06:50;;;;;;;27.05;14.35;;;;;;;;;;5056395;28;20025;-83
2023/04/20 09:09:17;;;;;;;30.73;15.65;;;;;;;;;;5072848;28;20020;-86
2023/04/20 09:11:43;;;;;;;28.35;15.18;;;;;;;;;;5073455;28;20534;-84
2023/04/20 09:14:11;;;;;;;28.20;15.65;;;;;;;;;;5057573;28;20028;-85
2023/04/20 09:16:38;;;;;;;32.78;15.80;;;;;;;;;;5058017;28;20029;-84
2023/04/20 09:19:03;;;;;;;29.55;14.60;;;;;;;;;;5065025;28;20059;-86
2023/04/20 09:21:30;;;;;;;32.08;14.25;;;;;;;;;;5075298;28;20051;-84
2023/04/20 09:24:02;;;;;;;30.88;15.07;;;;;;;;;;5078636;28;20092;-83
2023/04/20 09:26:34;;;;;;;30.90;14.95;;;;;;;;;;5072560;28;20033;-87
2023/04/20 09:29:01;;;;;;;28.52;14.00;;;;;;;;;;5054633;28;20100;-85
2023/04/20 09:31:27;;;;;;;25.27;15.85;;;;;;;;;;5077465;28;20032;-84
2023/04/20 09:33:59;;;;;;;30.27;13.43;;;;;;;;;;5066700;28;20055;-83
2023/04/20 09:36:35;;;;;;;30.63;13.55;;;;;;;;;;5064442;28;20082;-84
2023/04/20 09:39:02;;;;;;;22.90;12.90;;;;;;;;;;5076020;28;20055;-86
2023/04/20 09:41:29;;;;;;;23.02;11.85;;;;;;;;;;5070489;28;20039;-84
2023/04/20 09:43:55;;;;;;;36.22;12.70;;;;;;;;;;5076025;28;20067;-84
2023/04/20 09:46:20;;;;;;;31.88;12.77;;;;;;;;;;5058296;28;20036;-86
2023/04/20 09:48:46;;;;;;;30.58;12.82;;;;;;;;;;5073088;28;20130;-83
2023/04/20 09:51:19;;;;;;;21.90;11.55;;;;;;;;;;5075829;28;20488;-83
2023/04/20 09:53:49;;;;;;;21.88;11.52;;;;;;;;;;5070088;28;20060;-83
2023/04/20 09:56:15;;;;;;;20.92;10.68;;;;;;;;;;5066894;28;20603;-83
2023/04/20 09:58:40;;;;;;;25.10;12.85;;;;;;;;;;5063019;28;20032;-83
2023/04/20 10:01:09;;;;;;;21.27;12.80;;;;;;;;;;5058530;28;20124;-83
2023/04/20 10:03:34;;;;;;;22.90;12.83;;;;;;;;;;5060688;28;20040;-87
2023/04/20 10:06:00;;;;;;;29.65;13.20;;;;;;;;;;5069270;28;20294;-84
2023/04/20 10:08:25;;;;;;;33.42;13.25;;;;;;;;;;5066773;28;20351;-84
2023/04/20 10:10:51;;;;;;;25.40;13.60;;;;;;;;;;5063912;28;20029;-85
2023/04/20 10:13:18;;;;;;;22.38;12.43;;;;;;;;;;5059094;28;20513;-83
2023/04/20 10:15:43;;;;;;;28.75;14.00;;;;;;;;;;5062578;28;20303;-82
2023/04/20 10:18:25;;;;;;;22.88;11.95;;;;;;;;;;5063860;28;20043;-83
2023/04/20 10:20:51;;;;;;;24.73;12.07;;;;;;;;;;5039926;28;20076;-84
2023/04/20 10:23:18;;;;;;;18.92;11.23;;;;;;;;;;5036467;28;20372;-83
2023/04/20 10:26:04;;;;;;;21.52;11.63;;;;;;;;;;5054741;28;20116;-86
2023/04/20 10:28:40;;;;;;;27.60;13.05;;;;;;;;;;5073655;28;20076;-85
2023/04/20 10:31:06;;;;;;;27.23;13.20;;;;;;;;;;5076528;28;20044;-83
2023/04/20 10:33:32;;;;;;;33.75;13.02;;;;;;;;;;5040390;28;20504;-84
2023/04/20 10:35:58;;;;;;;24.80;12.35;;;;;;;;;;5072159;28;20033;-81
2023/04/20 10:38:41;;;;;;;22.60;12.45;;;;;;;;;;5071876;28;20055;-82
2023/04/20 10:41:07;;;;;;;23.23;11.75;;;;;;;;;;5070993;28;20032;-84
2023/04/20 10:43:40;;;;;;;22.02;11.63;;;;;;;;;;5065494;28;20400;-81
2023/04/20 10:46:16;;;;;;;28.70;12.30;;;;;;;;;;5076145;28;20044;-81
2023/04/20 10:48:55;;;;;;;27.42;12.60;;;;;;;;;;5071618;28;20028;-82
2023/04/20 10:51:21;;;;;;;21.90;11.88;;;;;;;;;;5073584;28;20025;-82
2023/04/20 10:53:57;;;;;;;24.70;11.93;;;;;;;;;;5067029;28;20112;-83
2023/04/20 10:56:22;;;;;;;22.58;12.45;;;;;;;;;;5072838;28;20025;-86
2023/04/20 10:58:48;;;;;;;29.05;12.82;;;;;;;;;;5070409;28;20361;-82
2023/04/20 11:01:13;;;;;;;27.02;12.25;;;;;;;;;;5060590;28;20043;-81
2023/04/20 11:03:39;;;;;;;21.58;10.13;;;;;;;;;;5064241;28;20063;-86
2023/04/20 11:06:05;;;;;;;20.25;9.75;;;;;;;;;;5069531;28;20123;-85
2023/04/20 11:08:38;;;;;;;19.85;9.52;;;;;;;;;;5063143;28;20044;-82
2023/04/20 11:11:32;;;;;;;23.25;10.00;;;;;;;;;;5062643;28;20417;-80
2023/04/20 11:14:09;;;;;;;20.75;9.48;;;;;;;;;;5078365;22;20356;-83
2023/04/20 11:16:35;;;;;;;20.52;9.23;;;;;;;;;;5054459;28;20025;-79
2023/04/20 11:19:00;;;;;;;18.52;8.95;;;;;;;;;;5067931;28;20043;-86
2023/04/20 11:21:37;;;;;;;21.35;9.52;;;;;;;;;;5065175;28;20040;-85
2023/04/20 11:24:03;;;;;;;21.27;9.77;;;;;;;;;;5064453;28;20590;-83
2023/04/20 11:26:36;;;;;;;19.02;9.85;;;;;;;;;;5048459;28;20100;-85
2023/04/20 11:29:02;;;;;;;27.42;9.73;;;;;;;;;;5058291;28;20498;-83
2023/04/20 11:31:28;;;;;;;20.05;9.55;;;;;;;;;;5059951;28;20028;-84
2023/04/20 11:33:54;;;;;;;28.60;9.70;;;;;;;;;;5046480;28;20043;-83
2023/04/20 11:36:25;;;;;;;18.83;8.48;;;;;;;;;;5071951;28;20021;-83
2023/04/20 11:38:50;;;;;;;16.65;8.07;;;;;;;;;;5073300;28;20089;-81
2023/04/20 11:41:16;;;;;;;21.02;8.85;;;;;;;;;;5069628;28;20452;-85
2023/04/20 11:43:45;;;;;;;16.60;8.98;;;;;;;;;;5069366;28;20219;-85
2023/04/20 11:46:19;;;;;;;18.42;8.98;;;;;;;;;;5069763;28;20016;-88
2023/04/20 11:48:46;;;;;;;17.20;8.18;;;;;;;;;;5053567;28;20043;-84
2023/04/20 11:51:14;;;;;;;23.85;10.68;;;;;;;;;;5070535;28;20489;-86
2023/04/20 11:53:40;;;;;;;13.52;7.07;;;;;;;;;;5071472;28;20025;-85
2023/04/20 11:56:06;;;;;;;19.65;6.50;;;;;;;;;;5070998;28;20027;-88
2023/04/20 11:58:31;;;;;;;16.85;5.60;;;;;;;;;;5070858;28;20033;-83
2023/04/20 12:00:57;;;;;;;12.20;5.85;;;;;;;;;;5037864;28;20535;-85
2023/04/20 12:03:22;;;;;;;17.38;5.10;;;;;;;;;;5055978;28;20032;-86
2023/04/20 12:05:53;;;;;;;18.92;4.68;;;;;;;;;;5057128;28;20368;-85
2023/04/20 12:08:22;;;;;;;6.80;3.15;;;;;;;;;;5052861;28;20449;-87
2023/04/20 12:10:48;;;;;;;10.85;3.55;;;;;;;;;;5037476;28;20036;-84
2023/04/20 12:13:13;;;;;;;8.80;3.85;;;;;;;;;;5056823;28;20088;-87
2023/04/20 12:15:39;;;;;;;12.38;4.32;;;;;;;;;;5054292;28;20450;-86
2023/04/20 12:18:05;;;;;;;14.23;4.57;;;;;;;;;;5053829;28;20147;-86
2023/04/20 12:20:30;;;;;;;8.48;5.10;;;;;;;;;;5055574;28;20025;-86
2023/04/20 12:22:56;;;;;;;14.88;5.63;;;;;;;;;;5055985;28;20036;-85
2023/04/20 12:25:21;;;;;;;18.98;7.32;;;;;;;;;;5056386;28;20048;-85
2023/04/20 12:27:47;;;;;;;22.55;5.78;;;;;;;;;;5056414;28;20461;-88
2023/04/20 12:30:15;;;;;;;9.40;5.05;;;;;;;;;;5059062;28;20362;-87
2023/04/20 12:32:40;;;;;;;14.98;5.32;;;;;;;;;;5058722;28;20029;-86
2023/04/20 12:35:07;;;;;;;12.90;5.63;;;;;;;;;;5063472;28;20036;-86
2023/04/20 12:37:32;;;;;;;8.88;4.68;;;;;;;;;;5046568;28;20311;-85
2023/04/20 12:39:58;;;;;;;8.63;5.25;;;;;;;;;;5072225;28;20028;-86
2023/04/20 12:42:23;;;;;;;11.00;4.43;;;;;;;;;;5077369;28;20024;-86
2023/04/20 12:44:52;;;;;;;11.75;4.43;;;;;;;;;;5076817;28;20035;-85
2023/04/20 12:47:17;;;;;;;12.18;5.25;;;;;;;;;;5075620;28;20036;-85
2023/04/20 12:49:43;;;;;;;13.50;4.97;;;;;;;;;;5074312;28;20044;-84
2023/04/20 12:52:09;;;;;;;9.60;5.50;;;;;;;;;;5063313;28;20033;-86
2023/04/20 12:54:34;;;;;;;8.88;5.30;;;;;;;;;;5037699;28;20037;-88
2023/04/20 12:57:01;;;;;;;10.18;5.30;;;;;;;;;;5055115;28;20029;-87
2023/04/20 12:59:26;;;;;;;10.05;5.22;;;;;;;;;;5055168;28;20033;-86
2023/04/20 13:01:52;;;;;;;17.70;5.68;;;;;;;;;;5055313;28;20041;-86
2023/04/20 13:04:17;;;;;;;11.43;6.13;;;;;;;;;;5054812;28;20027;-85
2023/04/20 13:06:43;;;;;;;9.63;5.38;;;;;;;;;;5055140;28;20040;-88
2023/04/20 13:09:08;;;;;;;12.38;5.72;;;;;;;;;;5054317;28;20458;-85
2023/04/20 13:11:34;;;;;;;10.68;6.63;;;;;;;;;;5067485;28;20515;-85
2023/04/20 13:13:59;;;;;;;10.52;6.50;;;;;;;;;;5073880;28;20537;-86
2023/04/20 13:16:25;;;;;;;10.07;5.90;;;;;;;;;;5073137;28;20088;-87
2023/04/20 13:18:51;;;;;;;15.43;6.35;;;;;;;;;;5070320;28;20424;-89
2023/04/20 13:21:16;;;;;;;10.52;6.30;;;;;;;;;;5054568;28;20094;-89
2023/04/20 13:23:41;;;;;;;11.02;6.18;;;;;;;;;;5053072;28;20064;-87
2023/04/20 13:26:07;;;;;;;10.98;6.40;;;;;;;;;;5053563;28;20035;-88
2023/04/20 13:28:32;;;;;;;11.02;6.15;;;;;;;;;;5019972;28;20029;-86
2023/04/20 13:30:58;;;;;;;12.13;6.25;;;;;;;;;;5053397;28;20056;-88
2023/04/20 13:33:24;;;;;;;11.55;6.72;;;;;;;;;;5053052;28;20120;-86
2023/04/20 13:35:50;;;;;;;23.35;6.75;;;;;;;;;;5054275;28;20316;-86
2023/04/20 13:38:15;;;;;;;13.73;6.55;;;;;;;;;;5054318;28;20040;-86
2023/04/20 13:40:42;;;;;;;11.18;5.82;;;;;;;;;;5053101;28;20029;-85
2023/04/20 13:43:08;;;;;;;10.90;5.82;;;;;;;;;;5037153;28;20082;-86
2023/04/20 13:45:33;;;;;;;15.07;6.20;;;;;;;;;;5036819;28;20033;-90
2023/04/20 13:47:59;;;;;;;15.75;6.40;;;;;;;;;;5064582;28;20071;-87
2023/04/20 13:50:24;;;;;;;13.75;6.35;;;;;;;;;;5057744;28;20067;-88
2023/04/20 13:52:50;;;;;;;18.00;6.50;;;;;;;;;;5054478;28;20120;-88
2023/04/20 13:55:16;;;;;;;15.68;7.28;;;;;;;;;;5036086;28;20045;-87
2023/04/20 13:57:42;;;;;;;11.80;7.57;;;;;;;;;;5053987;28;20025;-88
2023/04/20 14:00:09;;;;;;;17.70;7.70;;;;;;;;;;5054541;28;20025;-89
2023/04/20 14:02:34;;;;;;;15.25;7.22;;;;;;;;;;5052930;28;20040;-89
2023/04/20 14:05:02;;;;;;;13.95;7.63;;;;;;;;;;5037755;28;20037;-90
2023/04/20 14:07:29;;;;;;;14.68;6.85;;;;;;;;;;5058679;28;20114;-87
2023/04/20 14:09:55;;;;;;;17.80;7.20;;;;;;;;;;5064512;28;20033;-89
2023/04/20 14:12:20;;;;;;;13.73;7.22;;;;;;;;;;5080998;28;20051;-87
2023/04/20 14:14:46;;;;;;;12.20;6.55;;;;;;;;;;5064682;28;20443;-88
2023/04/20 14:17:12;;;;;;;12.02;6.60;;;;;;;;;;5056788;28;20484;-87
2023/04/20 14:19:37;;;;;;;13.98;6.78;;;;;;;;;;5073160;28;20373;-86
2023/04/20 14:22:03;;;;;;;14.85;7.60;;;;;;;;;;5073833;28;20043;-88